Breydel — OROS — position and weather

sailwx.info

Track history (hours):
 
Tides and Currents Weather Stations Pressure Air Temp Water Temp Dewpoint Dewpoint Depression Visibility Wind Speed Wind Dir Waves Ship Positions

Breydel

Last reported at 2017-Sep-22 02:01 UTC. Time now 2017-Sep-22 10:07 UTC.
Position N 09°27' W 013°43'.

Length 124 m; draft 5.5 m.

Type: Dredging. MMSI: 205520000.

Date/timePositionNaut miles runAvg speedWind from/ knotsBaromVisibWave heightAir tempDewpointWater temp
2017-Sep-22 02:01N 09°27' W 013°43'4 8.2
2017-Sep-22 01:30N 09°31' W 013°43'0 0.1
2017-Sep-22 01:00N 09°31' W 013°43'4 7.2
2017-Sep-22 00:30N 09°28' W 013°43'1 2.8
2017-Sep-22 00:00N 09°29' W 013°44'2 4.3
2017-Sep-21 23:30N 09°31' W 013°43'0 0.6
2017-Sep-21 23:00N 09°31' W 013°43'1 1.1
2017-Sep-21 22:30N 09°31' W 013°43'4 8.4
2017-Sep-21 22:00N 09°27' W 013°42'4 8.5
2017-Sep-21 21:30N 09°31' W 013°43'1 1.1
2017-Sep-21 21:00N 09°31' W 013°43'0 0.1
2017-Sep-21 20:30N 09°31' W 013°43'2 3.8
2017-Sep-21 20:00N 09°30' W 013°44'2 4.4
2017-Sep-21 19:30N 09°28' W 013°43'3 6.9
2017-Sep-21 19:00N 09°31' W 013°43'1 1.1
2017-Sep-21 18:30N 09°31' W 013°43'0 0.0
2017-Sep-21 18:00N 09°31' W 013°43'0 0.1
2017-Sep-21 17:30N 09°31' W 013°43'4 8.7
2017-Sep-21 17:00N 09°27' W 013°43'3 6.7
2017-Sep-21 16:30N 09°30' W 013°44'1 1.9
2017-Sep-21 16:00N 09°31' W 013°43'0 0.7
2017-Sep-21 15:30N 09°31' W 013°43'0 0.3
2017-Sep-21 15:00N 09°31' W 013°43'4 7.6
2017-Sep-21 14:30N 09°28' W 013°43'1 2.7
2017-Sep-21 14:00N 09°29' W 013°44'2 4.8
2017-Sep-21 13:30N 09°31' W 013°43'0 0.5
2017-Sep-21 13:00N 09°31' W 013°43'2 3.3
2017-Sep-21 12:30N 09°30' W 013°44'3 5.6
2017-Sep-21 12:00N 09°27' W 013°43'2 3.3
2017-Sep-21 11:30N 09°29' W 013°44'1 2.7
2017-Sep-21 11:00N 09°30' W 013°44'1 0.2
2017-Sep-21 05:41N 09°31' W 013°43'0 1.5
2017-Sep-21 05:30N 09°31' W 013°43'2 3.6
2017-Sep-21 05:00N 09°29' W 013°44'1 2.8
2017-Sep-21 04:30N 09°28' W 013°43'3 6.1
2017-Sep-21 04:00N 09°31' W 013°43'0 0.4
2017-Sep-21 03:30N 09°31' W 013°43'2 3.4
2017-Sep-21 03:00N 09°29' W 013°44'0 0.1
2017-Sep-20 23:09N 09°29' W 013°44'110.5
2017-Sep-20 23:00N 09°30' W 013°44'0 0.6
2017-Sep-20 22:30N 09°31' W 013°44'3 6.9
2017-Sep-20 22:00N 09°27' W 013°43'3 5.2
2017-Sep-20 21:30N 09°30' W 013°44'0 0.7
2017-Sep-20 21:00N 09°30' W 013°44'0 0.0
2017-Sep-20 20:30N 09°30' W 013°44'3 6.4
2017-Sep-20 20:00N 09°27' W 013°42'3 7.0
2017-Sep-20 19:30N 09°30' W 013°44'0 0.4
2017-Sep-20 19:00N 09°31' W 013°44'2 4.6
2017-Sep-20 18:30N 09°28' W 013°44'1 1.0
2017-Sep-20 18:00N 09°29' W 013°44'2 4.0
2017-Sep-20 17:30N 09°31' W 013°43'0 0.1
2017-Sep-20 17:00N 09°31' W 013°43'3 6.3
2017-Sep-20 16:30N 09°28' W 013°43'1 1.0
2017-Sep-20 16:00N 09°28' W 013°43'3 5.2
2017-Sep-20 15:30N 09°30' W 013°44'0 0.4
2017-Sep-20 15:00N 09°30' W 013°44'0 0.2
2017-Sep-20 14:00N 09°30' W 013°43'0 0.3
2017-Sep-20 13:30N 09°30' W 013°44'1 2.3
2017-Sep-20 13:00N 09°29' W 013°44'3 5.3
2017-Sep-20 12:30N 09°27' W 013°43'3 7.0
2017-Sep-20 12:00N 09°30' W 013°44'1 2.3
2017-Sep-20 11:30N 09°29' W 013°44'2 4.1
2017-Sep-20 11:00N 09°27' W 013°42'4 7.5
2017-Sep-20 10:30N 09°31' W 013°43'1 1.2
2017-Sep-20 10:00N 09°31' W 013°43'2 3.3
2017-Sep-20 09:30N 09°30' W 013°44'2 3.5
2017-Sep-20 09:00N 09°28' W 013°43'3 6.5
2017-Sep-20 08:30N 09°31' W 013°43'0 0.3
2017-Sep-20 08:00N 09°31' W 013°43'2 3.2
2017-Sep-20 07:30N 09°30' W 013°44'2 4.1
2017-Sep-20 07:00N 09°28' W 013°43'4 7.1
2017-Sep-20 06:30N 09°31' W 013°43'1 2.3
2017-Sep-20 06:00N 09°30' W 013°44'3 6.0
2017-Sep-20 05:30N 09°27' W 013°43'4 7.9
2017-Sep-20 05:00N 09°31' W 013°43'1 2.2
2017-Sep-20 04:30N 09°30' W 013°44'4 7.6
2017-Sep-20 04:00N 09°27' W 013°42'4 8.1
2017-Sep-20 03:30N 09°31' W 013°43'0 0.7
2017-Sep-20 03:00N 09°30' W 013°44'4 7.4
2017-Sep-20 02:30N 09°27' W 013°42'4 7.6
2017-Sep-20 02:00N 09°30' W 013°44'0 0.6
2017-Sep-20 01:30N 09°31' W 013°43'4 7.6
2017-Sep-20 01:00N 09°27' W 013°42'2 4.6
2017-Sep-20 00:30N 09°29' W 013°44'2 3.9
2017-Sep-20 00:00N 09°31' W 013°43'2 3.5
2017-Sep-19 23:30N 09°29' W 013°44'2 4.0
2017-Sep-19 23:00N 09°27' W 013°43'0 0.9
2017-Sep-19 22:30N 09°27' W 013°43'0 0.2
2017-Sep-19 22:00N 09°27' W 013°43'0 0.2
2017-Sep-19 21:30N 09°27' W 013°43'1 2.6
2017-Sep-19 21:00N 09°28' W 013°43'3 6.4
2017-Sep-19 20:30N 09°31' W 013°43'1 1.1
2017-Sep-19 20:00N 09°31' W 013°43'4 7.7
2017-Sep-19 19:30N 09°27' W 013°42'4 7.2
2017-Sep-19 19:00N 09°30' W 013°44'1 1.5
2017-Sep-19 18:30N 09°31' W 013°43'1 1.5
2017-Sep-19 18:00N 09°30' W 013°44'3 7.0
2017-Sep-19 17:30N 09°27' W 013°43'4 8.1
2017-Sep-19 17:00N 09°31' W 013°43'0 0.6
2017-Sep-19 16:30N 09°31' W 013°43'4 8.2
2017-Sep-19 16:00N 09°27' W 013°43'3 6.0
2017-Sep-19 15:30N 09°30' W 013°44'1 2.5
2017-Sep-19 15:00N 09°31' W 013°43'3 6.7
2017-Sep-19 14:30N 09°28' W 013°43'1 1.9
2017-Sep-19 14:00N 09°28' W 013°44'2 4.6
2017-Sep-19 13:30N 09°31' W 013°43'0 0.1
2017-Sep-19 13:00N 09°31' W 013°43'4 8.3
2017-Sep-19 12:30N 09°27' W 013°42'2 5.0
2017-Sep-19 12:00N 09°29' W 013°44'0 0.8
2017-Sep-19 11:30N 09°29' W 013°44'1 1.0
2017-Sep-19 11:00N 09°29' W 013°44'0 1.0
2017-Sep-19 10:30N 09°29' W 013°44'0 0.3
2017-Sep-19 10:00N 09°30' W 013°44'2 0.2
2017-Sep-18 23:21N 09°28' W 013°43'1 2.1
2017-Sep-18 23:00N 09°27' W 013°43'4 7.6
2017-Sep-18 22:30N 09°31' W 013°43'0 0.6
2017-Sep-18 22:00N 09°31' W 013°43'4 7.7
2017-Sep-18 21:30N 09°27' W 013°43'2 4.6
2017-Sep-18 21:00N 09°30' W 013°44'2 4.0
2017-Sep-18 20:30N 09°31' W 013°43'1 1.4
2017-Sep-18 20:00N 09°31' W 013°43'2 4.2
2017-Sep-18 19:30N 09°29' W 013°44'2 4.2
2017-Sep-18 19:00N 09°27' W 013°42'1 2.8
2017-Sep-18 18:30N 09°28' W 013°43'3 6.4
2017-Sep-18 18:00N 09°31' W 013°43'0 0.5
2017-Sep-18 17:30N 09°31' W 013°43'0 0.1
2017-Sep-18 17:00N 09°31' W 013°43'0 0.7
2017-Sep-18 16:30N 09°31' W 013°43'4 8.8
2017-Sep-18 16:00N 09°27' W 013°42'0 0.2
2017-Sep-18 15:30N 09°27' W 013°42'0 0.4
2017-Sep-18 15:00N 09°27' W 013°42'0 0.2
2017-Sep-18 14:30N 09°27' W 013°42'2 3.3
2017-Sep-18 14:00N 09°28' W 013°44'3 5.3
2017-Sep-18 13:30N 09°31' W 013°43'0 0.0
2017-Sep-18 13:00N 09°31' W 013°43'0 0.5
2017-Sep-18 12:30N 09°31' W 013°43'0 0.8
2017-Sep-18 12:00N 09°31' W 013°43'3 6.5
2017-Sep-18 11:30N 09°28' W 013°44'0 0.8
2017-Sep-18 11:00N 09°28' W 013°44'3 5.6
2017-Sep-18 10:30N 09°31' W 013°43'0 0.7
2017-Sep-18 10:00N 09°31' W 013°43'1 1.3
2017-Sep-18 09:30N 09°30' W 013°44'4 8.1
2017-Sep-18 09:00N 09°27' W 013°42'4 8.3
2017-Sep-18 08:30N 09°31' W 013°44'1 1.4
2017-Sep-18 08:00N 09°31' W 013°43'0 0.1
2017-Sep-18 07:30N 09°31' W 013°43'0 0.1
2017-Sep-18 07:00N 09°31' W 013°43'1 1.5
2017-Sep-18 06:30N 09°31' W 013°44'4 7.1
2017-Sep-18 06:00N 09°27' W 013°42'3 5.2
2017-Sep-18 05:30N 09°30' W 013°44'2 3.1
2017-Sep-18 05:00N 09°31' W 013°43'2 4.5
2017-Sep-18 04:30N 09°29' W 013°44'0 0.6
2017-Sep-18 04:00N 09°29' W 013°44'3 5.1
2017-Sep-18 03:30N 09°31' W 013°43'2 3.9
2017-Sep-18 03:00N 09°29' W 013°44'1 2.1
2017-Sep-18 02:30N 09°28' W 013°43'3 5.3
2017-Sep-18 02:00N 09°31' W 013°43'0 0.2
2017-Sep-18 01:30N 09°31' W 013°43'4 8.7
2017-Sep-18 01:00N 09°26' W 013°42'4 8.5
2017-Sep-18 00:30N 09°31' W 013°43'0 0.6
2017-Sep-18 00:00N 09°31' W 013°43'4 8.0
2017-Sep-17 23:30N 09°27' W 013°43'3 6.4
2017-Sep-17 23:00N 09°30' W 013°44'1 2.1
2017-Sep-17 22:30N 09°31' W 013°43'4 7.0
2017-Sep-17 22:00N 09°27' W 013°43'2 4.4
2017-Sep-17 21:30N 09°29' W 013°44'2 3.2
2017-Sep-17 21:00N 09°31' W 013°43'4 7.3
2017-Sep-17 20:30N 09°27' W 013°43'3 5.2
2017-Sep-17 20:00N 09°30' W 013°44'1 2.7
2017-Sep-17 19:30N 09°31' W 013°43'4 7.1
2017-Sep-17 19:00N 09°28' W 013°43'1 1.5
2017-Sep-17 18:30N 09°27' W 013°43'4 7.8
2017-Sep-17 18:00N 09°31' W 013°43'0 0.1
2017-Sep-17 17:30N 09°31' W 013°43'4 7.6
2017-Sep-17 17:00N 09°27' W 013°42'4 7.8
2017-Sep-17 16:30N 09°31' W 013°43'0 0.4
2017-Sep-17 16:00N 09°31' W 013°43'0 0.4
2017-Sep-17 15:30N 09°31' W 013°43'0 0.2
2017-Sep-17 15:00N 09°31' W 013°43'0 0.1
2017-Sep-17 14:30N 09°31' W 013°43'0 0.2
2017-Sep-17 14:00N 09°31' W 013°43'0 0.2
2017-Sep-17 13:30N 09°31' W 013°43'0 0.1
2017-Sep-17 13:01N 09°31' W 013°43'0 0.6
2017-Sep-17 12:30N 09°31' W 013°43'2 3.1
2017-Sep-17 12:00N 09°29' W 013°44'1 2.6
2017-Sep-17 11:30N 09°28' W 013°43'3 5.9
2017-Sep-17 11:00N 09°31' W 013°43'0 0.3
2017-Sep-17 10:30N 09°31' W 013°43'0 0.7
2017-Sep-17 10:00N 09°30' W 013°44'4 7.1
2017-Sep-17 09:30N 09°27' W 013°42'4 7.7
2017-Sep-17 09:00N 09°31' W 013°43'0 0.1
2017-Sep-17 08:30N 09°31' W 013°43'0 0.5
2017-Sep-17 08:00N 09°31' W 013°44'3 6.8
2017-Sep-17 07:30N 09°27' W 013°43'0 0.3
2017-Sep-17 07:00N 09°27' W 013°42'3 6.6
2017-Sep-17 06:30N 09°30' W 013°44'1 1.4
2017-Sep-17 06:00N 09°31' W 013°43'4 7.2
2017-Sep-17 05:30N 09°27' W 013°43'3 5.6
2017-Sep-17 05:00N 09°30' W 013°44'1 1.6
2017-Sep-17 04:30N 09°31' W 013°43'2 3.3
2017-Sep-17 04:00N 09°29' W 013°44'1 2.4
2017-Sep-17 03:30N 09°28' W 013°43'3 5.4
2017-Sep-17 03:00N 09°31' W 013°43'0 0.7
2017-Sep-17 02:30N 09°30' W 013°44'3 7.0
2017-Sep-17 02:00N 09°27' W 013°43'4 7.6
2017-Sep-17 01:30N 09°31' W 013°43'0 0.2
2017-Sep-17 01:00N 09°31' W 013°43'0 0.2
2017-Sep-17 00:30N 09°31' W 013°43'2 4.8
2017-Sep-17 00:00N 09°28' W 013°44'0 0.2
2017-Sep-16 23:30N 09°28' W 013°44'3 5.1
2017-Sep-16 23:00N 09°31' W 013°43'0 1.0
2017-Sep-16 22:30N 09°30' W 013°44'4 7.4
2017-Sep-16 22:00N 09°27' W 013°43'4 7.8
2017-Sep-16 21:30N 09°31' W 013°43'0 0.3
2017-Sep-16 21:00N 09°31' W 013°43'4 8.5
2017-Sep-16 20:30N 09°27' W 013°43'4 8.4
2017-Sep-16 20:00N 09°31' W 013°43'1 1.3
2017-Sep-16 19:30N 09°31' W 013°43'0 0.8
2017-Sep-16 19:00N 09°31' W 013°43'4 8.0
2017-Sep-16 18:30N 09°27' W 013°42'3 5.3
2017-Sep-16 18:00N 09°29' W 013°44'2 3.0
2017-Sep-16 17:30N 09°31' W 013°43'0 0.3
2017-Sep-16 17:00N 09°31' W 013°43'3 5.3
2017-Sep-16 16:30N 09°28' W 013°44'3 1.8
2017-Sep-16 15:01N 09°31' W 013°43'0 0.4
2017-Sep-16 15:00N 09°31' W 013°43'0 0.2
2017-Sep-16 14:30N 09°31' W 013°43'0 0.1
2017-Sep-16 14:00N 09°31' W 013°43'0 0.2
2017-Sep-16 13:30N 09°31' W 013°43'0 0.1
2017-Sep-16 13:00N 09°31' W 013°43'0 0.0
2017-Sep-16 12:30N 09°31' W 013°43'0 0.7
2017-Sep-16 12:00N 09°31' W 013°43'4 8.4
2017-Sep-16 11:30N 09°27' W 013°42'4 7.7
2017-Sep-16 11:00N 09°30' W 013°44'1 1.1
2017-Sep-16 10:30N 09°31' W 013°43'4 8.7
2017-Sep-16 10:00N 09°27' W 013°42'4 8.0
2017-Sep-16 09:30N 09°30' W 013°44'0 0.8
2017-Sep-16 09:00N 09°31' W 013°43'1 2.4
2017-Sep-16 08:30N 09°30' W 013°44'2 4.9
2017-Sep-16 08:00N 09°27' W 013°43'4 7.2
2017-Sep-16 07:30N 09°31' W 013°43'0 0.1
2017-Sep-16 07:00N 09°31' W 013°43'2 3.3
2017-Sep-16 06:30N 09°29' W 013°44'3 5.4
2017-Sep-16 06:00N 09°27' W 013°42'3 6.9
2017-Sep-16 05:30N 09°30' W 013°44'0 0.9
2017-Sep-16 05:00N 09°31' W 013°43'0 0.6
2017-Sep-16 04:30N 09°30' W 013°44'3 5.0
2017-Sep-16 04:00N 09°28' W 013°43'3 6.3
2017-Sep-16 03:30N 09°31' W 013°43'0 0.5
2017-Sep-16 03:00N 09°31' W 013°43'2 4.6
2017-Sep-16 02:30N 09°28' W 013°44'0 0.8
2017-Sep-16 02:00N 09°29' W 013°44'2 4.5
2017-Sep-16 01:30N 09°31' W 013°43'0 0.3
2017-Sep-16 01:00N 09°31' W 013°43'0 0.0
2017-Sep-16 00:30N 09°31' W 013°43'0 0.3
2017-Sep-16 00:00N 09°31' W 013°43'0 0.0
2017-Sep-15 23:30N 09°31' W 013°43'0 0.0
2017-Sep-15 23:00N 09°31' W 013°43'0 0.3
2017-Sep-15 22:30N 09°31' W 013°43'0 0.3
2017-Sep-15 22:00N 09°31' W 013°43'0 0.0
2017-Sep-15 21:30N 09°31' W 013°43'0 0.2
2017-Sep-15 21:00N 09°31' W 013°43'4 7.9
2017-Sep-15 20:30N 09°27' W 013°43'1 2.3
2017-Sep-15 20:00N 09°28' W 013°43'3 6.1
2017-Sep-15 19:30N 09°31' W 013°43'0 0.0
2017-Sep-15 19:00N 09°31' W 013°43'0 0.1
2017-Sep-15 18:30N 09°31' W 013°43'0 0.1
2017-Sep-15 18:00N 09°31' W 013°43'0 0.0
2017-Sep-15 17:31N 09°31' W 013°43'0 0.0
2017-Sep-15 17:00N 09°31' W 013°43'0 0.3
2017-Sep-15 16:30N 09°31' W 013°43'0 0.5
2017-Sep-15 16:00N 09°31' W 013°43'0 0.4
2017-Sep-15 15:30N 09°31' W 013°43'0 0.1
2017-Sep-15 15:00N 09°31' W 013°43'0 0.1
2017-Sep-15 14:30N 09°31' W 013°43'4 8.0
2017-Sep-15 14:00N 09°27' W 013°43'3 5.3
2017-Sep-15 13:30N 09°30' W 013°44'2 3.2
2017-Sep-15 13:00N 09°31' W 013°43'0 0.1
2017-Sep-15 12:30N 09°31' W 013°43'0 0.1
2017-Sep-15 12:00N 09°31' W 013°43'0 0.4
2017-Sep-15 11:31N 09°31' W 013°43'0 0.3
2017-Sep-15 11:00N 09°31' W 013°43'0 0.0
2017-Sep-15 10:30N 09°31' W 013°43'0 0.5
2017-Sep-15 10:00N 09°31' W 013°43'3 6.2
2017-Sep-15 09:30N 09°28' W 013°43'1 1.0
2017-Sep-15 09:00N 09°27' W 013°43'4 7.1
2017-Sep-15 08:30N 09°31' W 013°43'0 0.2
2017-Sep-15 08:00N 09°31' W 013°43'0 0.1
2017-Sep-15 07:30N 09°31' W 013°43'1 1.0
2017-Sep-15 06:57N 09°30' W 013°44'4 8.0
2017-Sep-15 06:30N 09°27' W 013°42'4 8.1
2017-Sep-15 06:00N 09°31' W 013°43'0 0.0
2017-Sep-15 05:30N 09°31' W 013°43'0 0.5
2017-Sep-15 05:00N 09°31' W 013°43'0 0.1
2017-Sep-15 04:30N 09°31' W 013°43'4 7.2
2017-Sep-15 04:00N 09°28' W 013°43'2 4.3
2017-Sep-15 03:30N 09°30' W 013°44'2 3.2
2017-Sep-15 03:00N 09°31' W 013°43'0 0.4
2017-Sep-15 02:30N 09°31' W 013°43'0 0.4
2017-Sep-15 02:00N 09°31' W 013°43'0 0.1
2017-Sep-15 01:30N 09°31' W 013°43'3 5.6
2017-Sep-15 01:01N 09°28' W 013°44'2 4.0
2017-Sep-15 00:30N 09°27' W 013°42'0 0.4
2017-Sep-15 00:00N 09°27' W 013°42'5 5.7
2017-Sep-14 23:11N 09°31' W 013°43'0 1.3
2017-Sep-14 23:00N 09°31' W 013°43'0 0.2
2017-Sep-14 22:30N 09°31' W 013°43'0 0.7
2017-Sep-14 22:00N 09°31' W 013°43'4 8.1
2017-Sep-14 21:30N 09°27' W 013°42'1 3.0
2017-Sep-14 21:00N 09°28' W 013°44'3 5.2
2017-Sep-14 20:30N 09°31' W 013°43'4 8.0
2017-Sep-14 20:00N 09°27' W 013°42'4 7.8
2017-Sep-14 19:30N 09°31' W 013°43'0 0.4
2017-Sep-14 19:01N 09°31' W 013°43'4 7.9
2017-Sep-14 18:30N 09°27' W 013°42'4 7.4
2017-Sep-14 18:00N 09°31' W 013°44'1 1.2
2017-Sep-14 17:30N 09°31' W 013°43'3 6.4
2017-Sep-14 17:00N 09°28' W 013°43'1 1.6
2017-Sep-14 16:30N 09°29' W 013°44'2 4.3
2017-Sep-14 16:00N 09°31' W 013°43'0 0.1
2017-Sep-14 15:30N 09°31' W 013°43'4 7.8
2017-Sep-14 15:00N 09°27' W 013°43'4 7.6
2017-Sep-14 14:30N 09°31' W 013°43'0 0.4
2017-Sep-14 14:01N 09°31' W 013°44'4 7.4
2017-Sep-14 13:30N 09°27' W 013°43'4 8.1
2017-Sep-14 13:00N 09°31' W 013°43'0 0.8
2017-Sep-14 12:30N 09°31' W 013°43'0 0.2
2017-Sep-14 12:00N 09°31' W 013°43'0 0.2
2017-Sep-14 11:30N 09°31' W 013°43'0 0.1
2017-Sep-14 11:00N 09°31' W 013°43'0 0.0
2017-Sep-14 10:30N 09°31' W 013°43'1 2.2
2017-Sep-14 10:01N 09°30' W 013°44'4 7.1
2017-Sep-14 09:31N 09°27' W 013°42'4 8.3
2017-Sep-14 09:00N 09°31' W 013°43'0 0.4
2017-Sep-14 08:30N 09°31' W 013°43'1 2.1
2017-Sep-14 08:00N 09°30' W 013°44'3 5.4
2017-Sep-14 07:30N 09°27' W 013°43'4 7.2
2017-Sep-14 07:00N 09°31' W 013°43'1 1.4
2017-Sep-14 06:31N 09°30' W 013°44'3 6.6
2017-Sep-14 06:01N 09°27' W 013°43'4 7.9
2017-Sep-14 05:31N 09°31' W 013°43'0 0.9
2017-Sep-14 05:00N 09°31' W 013°43'4 8.5
2017-Sep-14 04:31N 09°27' W 013°42'4 8.5
2017-Sep-14 04:01N 09°31' W 013°43'0 0.5
2017-Sep-14 03:31N 09°30' W 013°44'4 7.3
2017-Sep-14 03:01N 09°27' W 013°43'4 7.9
2017-Sep-14 02:30N 09°31' W 013°43'0 0.4
2017-Sep-14 02:01N 09°31' W 013°43'4 7.7
2017-Sep-14 01:31N 09°27' W 013°42'4 8.4
2017-Sep-14 01:01N 09°31' W 013°43'0 0.7
2017-Sep-14 00:30N 09°31' W 013°43'0 0.2
2017-Sep-14 00:01N 09°31' W 013°43'0 0.0
2017-Sep-13 23:30N 09°31' W 013°43'2 4.6
2017-Sep-13 23:01N 09°29' W 013°44'2 4.8
2017-Sep-13 22:30N 09°27' W 013°43'0 0.7
2017-Sep-13 22:01N 09°27' W 013°43'4 8.7
2017-Sep-13 21:31N 09°31' W 013°43'0 0.6
2017-Sep-13 21:01N 09°31' W 013°43'0 0.2
2017-Sep-13 20:31N 09°31' W 013°43'0 0.2
2017-Sep-13 20:00N 09°31' W 013°43'0 0.1
2017-Sep-13 19:30N 09°31' W 013°43'0 0.1
2017-Sep-13 19:01N 09°31' W 013°43'0 0.2
2017-Sep-13 18:31N 09°31' W 013°43'0 0.3
2017-Sep-13 18:01N 09°31' W 013°43'0 0.1
2017-Sep-13 17:31N 09°31' W 013°43'0 0.1
2017-Sep-13 17:01N 09°31' W 013°43'2 4.3
2017-Sep-13 16:30N 09°29' W 013°44'1 2.7
2017-Sep-13 16:01N 09°28' W 013°44'3 6.5
2017-Sep-13 15:31N 09°31' W 013°43'0 0.2
2017-Sep-13 15:00N 09°31' W 013°43'0 0.2
2017-Sep-13 14:30N 09°31' W 013°43'4 8.2
2017-Sep-13 14:01N 09°27' W 013°43'3 5.6
2017-Sep-13 13:30N 09°30' W 013°44'2 3.0
2017-Sep-13 13:01N 09°31' W 013°43'0 0.1
2017-Sep-13 12:31N 09°31' W 013°43'0 0.3
2017-Sep-13 12:00N 09°31' W 013°43'0 0.3
2017-Sep-13 11:31N 09°31' W 013°43'0 0.1
2017-Sep-13 11:01N 09°31' W 013°43'0 0.2
2017-Sep-13 10:31N 09°31' W 013°43'1 0.2
2017-Sep-13 02:35N 09°30' W 013°44'0 5.2
2017-Sep-13 02:30N 09°31' W 013°43'0 0.3
2017-Sep-13 02:01N 09°31' W 013°43'4 7.7
2017-Sep-13 01:31N 09°27' W 013°42'4 7.4
2017-Sep-13 01:01N 09°31' W 013°43'0 0.2
2017-Sep-13 00:30N 09°31' W 013°43'4 7.7
2017-Sep-13 00:00N 09°27' W 013°42'4 7.5
2017-Sep-12 23:31N 09°31' W 013°43'0 0.2
2017-Sep-12 23:00N 09°31' W 013°43'4 7.6
2017-Sep-12 22:30N 09°27' W 013°43'4 7.3
2017-Sep-12 22:01N 09°31' W 013°43'0 0.4
2017-Sep-12 21:31N 09°31' W 013°43'4 7.9
2017-Sep-12 21:00N 09°27' W 013°42'4 7.8
2017-Sep-12 20:30N 09°31' W 013°43'0 0.4
2017-Sep-12 20:01N 09°31' W 013°43'4 8.1
2017-Sep-12 19:31N 09°27' W 013°42'3 6.7
2017-Sep-12 19:01N 09°30' W 013°44'1 1.4
2017-Sep-12 18:30N 09°31' W 013°43'1 2.8
2017-Sep-12 18:01N 09°29' W 013°44'2 3.2
2017-Sep-12 17:31N 09°28' W 013°43'4 7.0
2017-Sep-12 17:01N 09°31' W 013°43'0 0.1
2017-Sep-12 16:30N 09°31' W 013°43'0 0.2
2017-Sep-12 16:01N 09°31' W 013°43'4 8.8
2017-Sep-12 15:31N 09°27' W 013°43'4 7.7
2017-Sep-12 15:00N 09°31' W 013°43'1 1.5
2017-Sep-12 14:31N 09°31' W 013°43'0 0.1
2017-Sep-12 14:01N 09°31' W 013°43'0 0.0
2017-Sep-12 13:31N 09°31' W 013°43'0 0.2
2017-Sep-12 13:01N 09°31' W 013°43'4 7.5
2017-Sep-12 12:30N 09°28' W 013°43'2 4.8
2017-Sep-12 12:01N 09°30' W 013°44'2 3.2
2017-Sep-12 11:30N 09°31' W 013°43'0 0.0
2017-Sep-12 11:01N 09°31' W 013°43'0 0.2
2017-Sep-12 10:31N 09°31' W 013°43'0 0.4
2017-Sep-12 10:01N 09°31' W 013°43'0 0.1
2017-Sep-12 09:30N 09°31' W 013°43'0 0.7
2017-Sep-12 09:01N 09°31' W 013°43'4 7.8
2017-Sep-12 08:31N 09°27' W 013°43'2 4.9
2017-Sep-12 08:01N 09°30' W 013°44'2 3.3
2017-Sep-12 07:31N 09°31' W 013°43'1 1.4
2017-Sep-12 07:00N 09°31' W 013°43'4 8.0
2017-Sep-12 06:31N 09°27' W 013°42'4 8.4
2017-Sep-12 06:01N 09°31' W 013°43'0 0.2
2017-Sep-12 05:31N 09°31' W 013°43'4 8.0
2017-Sep-12 05:00N 09°27' W 013°42'3 6.7
2017-Sep-12 04:30N 09°30' W 013°44'1 1.9
2017-Sep-12 04:00N 09°31' W 013°43'4 7.8
2017-Sep-12 03:31N 09°27' W 013°42'3 6.5
2017-Sep-12 03:01N 09°30' W 013°44'1 1.9
2017-Sep-12 02:31N 09°31' W 013°43'3 6.1
2017-Sep-12 02:01N 09°28' W 013°43'  
Track history (hours):
 
Tides and Currents Weather Stations Pressure Air Temp Water Temp Dewpoint Dewpoint Depression Visibility Wind Speed Wind Dir Waves Ship Positions

Breydel

Last reported at 2017-Sep-22 02:01 UTC. Time now 2017-Sep-22 10:07 UTC.
Position N 09°27' W 013°43'.

Length 124 m; draft 5.5 m.

Type: Dredging. MMSI: 205520000.

Date/timePositionNaut miles runAvg speedWind from/ knotsBaromVisibWave heightAir tempDewpointWater temp
2017-Sep-22 02:01N 09°27' W 013°43'4 8.2
2017-Sep-22 01:30N 09°31' W 013°43'0 0.1
2017-Sep-22 01:00N 09°31' W 013°43'4 7.2
2017-Sep-22 00:30N 09°28' W 013°43'1 2.8
2017-Sep-22 00:00N 09°29' W 013°44'2 4.3
2017-Sep-21 23:30N 09°31' W 013°43'0 0.6
2017-Sep-21 23:00N 09°31' W 013°43'1 1.1
2017-Sep-21 22:30N 09°31' W 013°43'4 8.4
2017-Sep-21 22:00N 09°27' W 013°42'4 8.5
2017-Sep-21 21:30N 09°31' W 013°43'1 1.1
2017-Sep-21 21:00N 09°31' W 013°43'0 0.1
2017-Sep-21 20:30N 09°31' W 013°43'2 3.8
2017-Sep-21 20:00N 09°30' W 013°44'2 4.4
2017-Sep-21 19:30N 09°28' W 013°43'3 6.9
2017-Sep-21 19:00N 09°31' W 013°43'1 1.1
2017-Sep-21 18:30N 09°31' W 013°43'0 0.0
2017-Sep-21 18:00N 09°31' W 013°43'0 0.1
2017-Sep-21 17:30N 09°31' W 013°43'4 8.7
2017-Sep-21 17:00N 09°27' W 013°43'3 6.7
2017-Sep-21 16:30N 09°30' W 013°44'1 1.9
2017-Sep-21 16:00N 09°31' W 013°43'0 0.7
2017-Sep-21 15:30N 09°31' W 013°43'0 0.3
2017-Sep-21 15:00N 09°31' W 013°43'4 7.6
2017-Sep-21 14:30N 09°28' W 013°43'1 2.7
2017-Sep-21 14:00N 09°29' W 013°44'2 4.8
2017-Sep-21 13:30N 09°31' W 013°43'0 0.5
2017-Sep-21 13:00N 09°31' W 013°43'2 3.3
2017-Sep-21 12:30N 09°30' W 013°44'3 5.6
2017-Sep-21 12:00N 09°27' W 013°43'2 3.3
2017-Sep-21 11:30N 09°29' W 013°44'1 2.7
2017-Sep-21 11:00N 09°30' W 013°44'1 0.2
2017-Sep-21 05:41N 09°31' W 013°43'0 1.5
2017-Sep-21 05:30N 09°31' W 013°43'2 3.6
2017-Sep-21 05:00N 09°29' W 013°44'1 2.8
2017-Sep-21 04:30N 09°28' W 013°43'3 6.1
2017-Sep-21 04:00N 09°31' W 013°43'0 0.4
2017-Sep-21 03:30N 09°31' W 013°43'2 3.4
2017-Sep-21 03:00N 09°29' W 013°44'0 0.1
2017-Sep-20 23:09N 09°29' W 013°44'110.5
2017-Sep-20 23:00N 09°30' W 013°44'0 0.6
2017-Sep-20 22:30N 09°31' W 013°44'3 6.9
2017-Sep-20 22:00N 09°27' W 013°43'3 5.2
2017-Sep-20 21:30N 09°30' W 013°44'0 0.7
2017-Sep-20 21:00N 09°30' W 013°44'0 0.0
2017-Sep-20 20:30N 09°30' W 013°44'3 6.4
2017-Sep-20 20:00N 09°27' W 013°42'3 7.0
2017-Sep-20 19:30N 09°30' W 013°44'0 0.4
2017-Sep-20 19:00N 09°31' W 013°44'2 4.6
2017-Sep-20 18:30N 09°28' W 013°44'1 1.0
2017-Sep-20 18:00N 09°29' W 013°44'2 4.0
2017-Sep-20 17:30N 09°31' W 013°43'0 0.1
2017-Sep-20 17:00N 09°31' W 013°43'3 6.3
2017-Sep-20 16:30N 09°28' W 013°43'1 1.0
2017-Sep-20 16:00N 09°28' W 013°43'3 5.2
2017-Sep-20 15:30N 09°30' W 013°44'0 0.4
2017-Sep-20 15:00N 09°30' W 013°44'0 0.2
2017-Sep-20 14:00N 09°30' W 013°43'0 0.3
2017-Sep-20 13:30N 09°30' W 013°44'1 2.3
2017-Sep-20 13:00N 09°29' W 013°44'3 5.3
2017-Sep-20 12:30N 09°27' W 013°43'3 7.0
2017-Sep-20 12:00N 09°30' W 013°44'1 2.3
2017-Sep-20 11:30N 09°29' W 013°44'2 4.1
2017-Sep-20 11:00N 09°27' W 013°42'4 7.5
2017-Sep-20 10:30N 09°31' W 013°43'1 1.2
2017-Sep-20 10:00N 09°31' W 013°43'2 3.3
2017-Sep-20 09:30N 09°30' W 013°44'2 3.5
2017-Sep-20 09:00N 09°28' W 013°43'3 6.5
2017-Sep-20 08:30N 09°31' W 013°43'0 0.3
2017-Sep-20 08:00N 09°31' W 013°43'2 3.2
2017-Sep-20 07:30N 09°30' W 013°44'2 4.1
2017-Sep-20 07:00N 09°28' W 013°43'4 7.1
2017-Sep-20 06:30N 09°31' W 013°43'1 2.3
2017-Sep-20 06:00N 09°30' W 013°44'3 6.0
2017-Sep-20 05:30N 09°27' W 013°43'4 7.9
2017-Sep-20 05:00N 09°31' W 013°43'1 2.2
2017-Sep-20 04:30N 09°30' W 013°44'4 7.6
2017-Sep-20 04:00N 09°27' W 013°42'4 8.1
2017-Sep-20 03:30N 09°31' W 013°43'0 0.7
2017-Sep-20 03:00N 09°30' W 013°44'4 7.4
2017-Sep-20 02:30N 09°27' W 013°42'4 7.6
2017-Sep-20 02:00N 09°30' W 013°44'0 0.6
2017-Sep-20 01:30N 09°31' W 013°43'4 7.6
2017-Sep-20 01:00N 09°27' W 013°42'2 4.6
2017-Sep-20 00:30N 09°29' W 013°44'2 3.9
2017-Sep-20 00:00N 09°31' W 013°43'2 3.5
2017-Sep-19 23:30N 09°29' W 013°44'2 4.0
2017-Sep-19 23:00N 09°27' W 013°43'0 0.9
2017-Sep-19 22:30N 09°27' W 013°43'0 0.2
2017-Sep-19 22:00N 09°27' W 013°43'0 0.2
2017-Sep-19 21:30N 09°27' W 013°43'1 2.6
2017-Sep-19 21:00N 09°28' W 013°43'3 6.4
2017-Sep-19 20:30N 09°31' W 013°43'1 1.1
2017-Sep-19 20:00N 09°31' W 013°43'4 7.7
2017-Sep-19 19:30N 09°27' W 013°42'4 7.2
2017-Sep-19 19:00N 09°30' W 013°44'1 1.5
2017-Sep-19 18:30N 09°31' W 013°43'1 1.5
2017-Sep-19 18:00N 09°30' W 013°44'3 7.0
2017-Sep-19 17:30N 09°27' W 013°43'4 8.1
2017-Sep-19 17:00N 09°31' W 013°43'0 0.6
2017-Sep-19 16:30N 09°31' W 013°43'4 8.2
2017-Sep-19 16:00N 09°27' W 013°43'3 6.0
2017-Sep-19 15:30N 09°30' W 013°44'1 2.5
2017-Sep-19 15:00N 09°31' W 013°43'3 6.7
2017-Sep-19 14:30N 09°28' W 013°43'1 1.9
2017-Sep-19 14:00N 09°28' W 013°44'2 4.6
2017-Sep-19 13:30N 09°31' W 013°43'0 0.1
2017-Sep-19 13:00N 09°31' W 013°43'4 8.3
2017-Sep-19 12:30N 09°27' W 013°42'2 5.0
2017-Sep-19 12:00N 09°29' W 013°44'0 0.8
2017-Sep-19 11:30N 09°29' W 013°44'1 1.0
2017-Sep-19 11:00N 09°29' W 013°44'0 1.0
2017-Sep-19 10:30N 09°29' W 013°44'0 0.3
2017-Sep-19 10:00N 09°30' W 013°44'2 0.2
2017-Sep-18 23:21N 09°28' W 013°43'1 2.1
2017-Sep-18 23:00N 09°27' W 013°43'4 7.6
2017-Sep-18 22:30N 09°31' W 013°43'0 0.6
2017-Sep-18 22:00N 09°31' W 013°43'4 7.7
2017-Sep-18 21:30N 09°27' W 013°43'2 4.6
2017-Sep-18 21:00N 09°30' W 013°44'2 4.0
2017-Sep-18 20:30N 09°31' W 013°43'1 1.4
2017-Sep-18 20:00N 09°31' W 013°43'2 4.2
2017-Sep-18 19:30N 09°29' W 013°44'2 4.2
2017-Sep-18 19:00N 09°27' W 013°42'1 2.8
2017-Sep-18 18:30N 09°28' W 013°43'3 6.4
2017-Sep-18 18:00N 09°31' W 013°43'0 0.5
2017-Sep-18 17:30N 09°31' W 013°43'0 0.1
2017-Sep-18 17:00N 09°31' W 013°43'0 0.7
2017-Sep-18 16:30N 09°31' W 013°43'4 8.8
2017-Sep-18 16:00N 09°27' W 013°42'0 0.2
2017-Sep-18 15:30N 09°27' W 013°42'0 0.4
2017-Sep-18 15:00N 09°27' W 013°42'0 0.2
2017-Sep-18 14:30N 09°27' W 013°42'2 3.3
2017-Sep-18 14:00N 09°28' W 013°44'3 5.3
2017-Sep-18 13:30N 09°31' W 013°43'0 0.0
2017-Sep-18 13:00N 09°31' W 013°43'0 0.5
2017-Sep-18 12:30N 09°31' W 013°43'0 0.8
2017-Sep-18 12:00N 09°31' W 013°43'3 6.5
2017-Sep-18 11:30N 09°28' W 013°44'0 0.8
2017-Sep-18 11:00N 09°28' W 013°44'3 5.6
2017-Sep-18 10:30N 09°31' W 013°43'0 0.7
2017-Sep-18 10:00N 09°31' W 013°43'1 1.3
2017-Sep-18 09:30N 09°30' W 013°44'4 8.1
2017-Sep-18 09:00N 09°27' W 013°42'4 8.3
2017-Sep-18 08:30N 09°31' W 013°44'1 1.4
2017-Sep-18 08:00N 09°31' W 013°43'0 0.1
2017-Sep-18 07:30N 09°31' W 013°43'0 0.1
2017-Sep-18 07:00N 09°31' W 013°43'1 1.5
2017-Sep-18 06:30N 09°31' W 013°44'4 7.1
2017-Sep-18 06:00N 09°27' W 013°42'3 5.2
2017-Sep-18 05:30N 09°30' W 013°44'2 3.1
2017-Sep-18 05:00N 09°31' W 013°43'2 4.5
2017-Sep-18 04:30N 09°29' W 013°44'0 0.6
2017-Sep-18 04:00N 09°29' W 013°44'3 5.1
2017-Sep-18 03:30N 09°31' W 013°43'2 3.9
2017-Sep-18 03:00N 09°29' W 013°44'1 2.1
2017-Sep-18 02:30N 09°28' W 013°43'3 5.3
2017-Sep-18 02:00N 09°31' W 013°43'0 0.2
2017-Sep-18 01:30N 09°31' W 013°43'4 8.7
2017-Sep-18 01:00N 09°26' W 013°42'4 8.5
2017-Sep-18 00:30N 09°31' W 013°43'0 0.6
2017-Sep-18 00:00N 09°31' W 013°43'4 8.0
2017-Sep-17 23:30N 09°27' W 013°43'3 6.4
2017-Sep-17 23:00N 09°30' W 013°44'1 2.1
2017-Sep-17 22:30N 09°31' W 013°43'4 7.0
2017-Sep-17 22:00N 09°27' W 013°43'2 4.4
2017-Sep-17 21:30N 09°29' W 013°44'2 3.2
2017-Sep-17 21:00N 09°31' W 013°43'4 7.3
2017-Sep-17 20:30N 09°27' W 013°43'3 5.2
2017-Sep-17 20:00N 09°30' W 013°44'1 2.7
2017-Sep-17 19:30N 09°31' W 013°43'4 7.1
2017-Sep-17 19:00N 09°28' W 013°43'1 1.5
2017-Sep-17 18:30N 09°27' W 013°43'4 7.8
2017-Sep-17 18:00N 09°31' W 013°43'0 0.1
2017-Sep-17 17:30N 09°31' W 013°43'4 7.6
2017-Sep-17 17:00N 09°27' W 013°42'4 7.8
2017-Sep-17 16:30N 09°31' W 013°43'0 0.4
2017-Sep-17 16:00N 09°31' W 013°43'0 0.4
2017-Sep-17 15:30N 09°31' W 013°43'0 0.2
2017-Sep-17 15:00N 09°31' W 013°43'0 0.1
2017-Sep-17 14:30N 09°31' W 013°43'0 0.2
2017-Sep-17 14:00N 09°31' W 013°43'0 0.2
2017-Sep-17 13:30N 09°31' W 013°43'0 0.1
2017-Sep-17 13:01N 09°31' W 013°43'0 0.6
2017-Sep-17 12:30N 09°31' W 013°43'2 3.1
2017-Sep-17 12:00N 09°29' W 013°44'1 2.6
2017-Sep-17 11:30N 09°28' W 013°43'3 5.9
2017-Sep-17 11:00N 09°31' W 013°43'0 0.3
2017-Sep-17 10:30N 09°31' W 013°43'0 0.7
2017-Sep-17 10:00N 09°30' W 013°44'4 7.1
2017-Sep-17 09:30N 09°27' W 013°42'4 7.7
2017-Sep-17 09:00N 09°31' W 013°43'0 0.1
2017-Sep-17 08:30N 09°31' W 013°43'0 0.5
2017-Sep-17 08:00N 09°31' W 013°44'3 6.8
2017-Sep-17 07:30N 09°27' W 013°43'0 0.3
2017-Sep-17 07:00N 09°27' W 013°42'3 6.6
2017-Sep-17 06:30N 09°30' W 013°44'1 1.4
2017-Sep-17 06:00N 09°31' W 013°43'4 7.2
2017-Sep-17 05:30N 09°27' W 013°43'3 5.6
2017-Sep-17 05:00N 09°30' W 013°44'1 1.6
2017-Sep-17 04:30N 09°31' W 013°43'2 3.3
2017-Sep-17 04:00N 09°29' W 013°44'1 2.4
2017-Sep-17 03:30N 09°28' W 013°43'3 5.4
2017-Sep-17 03:00N 09°31' W 013°43'0 0.7
2017-Sep-17 02:30N 09°30' W 013°44'3 7.0
2017-Sep-17 02:00N 09°27' W 013°43'4 7.6
2017-Sep-17 01:30N 09°31' W 013°43'0 0.2
2017-Sep-17 01:00N 09°31' W 013°43'0 0.2
2017-Sep-17 00:30N 09°31' W 013°43'2 4.8
2017-Sep-17 00:00N 09°28' W 013°44'0 0.2
2017-Sep-16 23:30N 09°28' W 013°44'3 5.1
2017-Sep-16 23:00N 09°31' W 013°43'0 1.0
2017-Sep-16 22:30N 09°30' W 013°44'4 7.4
2017-Sep-16 22:00N 09°27' W 013°43'4 7.8
2017-Sep-16 21:30N 09°31' W 013°43'0 0.3
2017-Sep-16 21:00N 09°31' W 013°43'4 8.5
2017-Sep-16 20:30N 09°27' W 013°43'4 8.4
2017-Sep-16 20:00N 09°31' W 013°43'1 1.3
2017-Sep-16 19:30N 09°31' W 013°43'0 0.8
2017-Sep-16 19:00N 09°31' W 013°43'4 8.0
2017-Sep-16 18:30N 09°27' W 013°42'3 5.3
2017-Sep-16 18:00N 09°29' W 013°44'2 3.0
2017-Sep-16 17:30N 09°31' W 013°43'0 0.3
2017-Sep-16 17:00N 09°31' W 013°43'3 5.3
2017-Sep-16 16:30N 09°28' W 013°44'3 1.8
2017-Sep-16 15:01N 09°31' W 013°43'0 0.4
2017-Sep-16 15:00N 09°31' W 013°43'0 0.2
2017-Sep-16 14:30N 09°31' W 013°43'0 0.1
2017-Sep-16 14:00N 09°31' W 013°43'0 0.2
2017-Sep-16 13:30N 09°31' W 013°43'0 0.1
2017-Sep-16 13:00N 09°31' W 013°43'0 0.0
2017-Sep-16 12:30N 09°31' W 013°43'0 0.7
2017-Sep-16 12:00N 09°31' W 013°43'4 8.4
2017-Sep-16 11:30N 09°27' W 013°42'4 7.7
2017-Sep-16 11:00N 09°30' W 013°44'1 1.1
2017-Sep-16 10:30N 09°31' W 013°43'4 8.7
2017-Sep-16 10:00N 09°27' W 013°42'4 8.0
2017-Sep-16 09:30N 09°30' W 013°44'0 0.8
2017-Sep-16 09:00N 09°31' W 013°43'1 2.4
2017-Sep-16 08:30N 09°30' W 013°44'2 4.9
2017-Sep-16 08:00N 09°27' W 013°43'4 7.2
2017-Sep-16 07:30N 09°31' W 013°43'0 0.1
2017-Sep-16 07:00N 09°31' W 013°43'2 3.3
2017-Sep-16 06:30N 09°29' W 013°44'3 5.4
2017-Sep-16 06:00N 09°27' W 013°42'3 6.9
2017-Sep-16 05:30N 09°30' W 013°44'0 0.9
2017-Sep-16 05:00N 09°31' W 013°43'0 0.6
2017-Sep-16 04:30N 09°30' W 013°44'3 5.0
2017-Sep-16 04:00N 09°28' W 013°43'3 6.3
2017-Sep-16 03:30N 09°31' W 013°43'0 0.5
2017-Sep-16 03:00N 09°31' W 013°43'2 4.6
2017-Sep-16 02:30N 09°28' W 013°44'0 0.8
2017-Sep-16 02:00N 09°29' W 013°44'2 4.5
2017-Sep-16 01:30N 09°31' W 013°43'0 0.3
2017-Sep-16 01:00N 09°31' W 013°43'0 0.0
2017-Sep-16 00:30N 09°31' W 013°43'0 0.3
2017-Sep-16 00:00N 09°31' W 013°43'0 0.0
2017-Sep-15 23:30N 09°31' W 013°43'0 0.0
2017-Sep-15 23:00N 09°31' W 013°43'0 0.3
2017-Sep-15 22:30N 09°31' W 013°43'0 0.3
2017-Sep-15 22:00N 09°31' W 013°43'0 0.0
2017-Sep-15 21:30N 09°31' W 013°43'0 0.2
2017-Sep-15 21:00N 09°31' W 013°43'4 7.9
2017-Sep-15 20:30N 09°27' W 013°43'1 2.3
2017-Sep-15 20:00N 09°28' W 013°43'3 6.1
2017-Sep-15 19:30N 09°31' W 013°43'0 0.0
2017-Sep-15 19:00N 09°31' W 013°43'0 0.1
2017-Sep-15 18:30N 09°31' W 013°43'0 0.1
2017-Sep-15 18:00N 09°31' W 013°43'0 0.0
2017-Sep-15 17:31N 09°31' W 013°43'0 0.0
2017-Sep-15 17:00N 09°31' W 013°43'0 0.3
2017-Sep-15 16:30N 09°31' W 013°43'0 0.5
2017-Sep-15 16:00N 09°31' W 013°43'0 0.4
2017-Sep-15 15:30N 09°31' W 013°43'0 0.1
2017-Sep-15 15:00N 09°31' W 013°43'0 0.1
2017-Sep-15 14:30N 09°31' W 013°43'4 8.0
2017-Sep-15 14:00N 09°27' W 013°43'3 5.3
2017-Sep-15 13:30N 09°30' W 013°44'2 3.2
2017-Sep-15 13:00N 09°31' W 013°43'0 0.1
2017-Sep-15 12:30N 09°31' W 013°43'0 0.1
2017-Sep-15 12:00N 09°31' W 013°43'0 0.4
2017-Sep-15 11:31N 09°31' W 013°43'0 0.3
2017-Sep-15 11:00N 09°31' W 013°43'0 0.0
2017-Sep-15 10:30N 09°31' W 013°43'0 0.5
2017-Sep-15 10:00N 09°31' W 013°43'3 6.2
2017-Sep-15 09:30N 09°28' W 013°43'1 1.0
2017-Sep-15 09:00N 09°27' W 013°43'4 7.1
2017-Sep-15 08:30N 09°31' W 013°43'0 0.2
2017-Sep-15 08:00N 09°31' W 013°43'0 0.1
2017-Sep-15 07:30N 09°31' W 013°43'1 1.0
2017-Sep-15 06:57N 09°30' W 013°44'4 8.0
2017-Sep-15 06:30N 09°27' W 013°42'4 8.1
2017-Sep-15 06:00N 09°31' W 013°43'0 0.0
2017-Sep-15 05:30N 09°31' W 013°43'0 0.5
2017-Sep-15 05:00N 09°31' W 013°43'0 0.1
2017-Sep-15 04:30N 09°31' W 013°43'4 7.2
2017-Sep-15 04:00N 09°28' W 013°43'2 4.3
2017-Sep-15 03:30N 09°30' W 013°44'2 3.2
2017-Sep-15 03:00N 09°31' W 013°43'0 0.4
2017-Sep-15 02:30N 09°31' W 013°43'0 0.4
2017-Sep-15 02:00N 09°31' W 013°43'0 0.1
2017-Sep-15 01:30N 09°31' W 013°43'3 5.6
2017-Sep-15 01:01N 09°28' W 013°44'2 4.0
2017-Sep-15 00:30N 09°27' W 013°42'0 0.4
2017-Sep-15 00:00N 09°27' W 013°42'5 5.7
2017-Sep-14 23:11N 09°31' W 013°43'0 1.3
2017-Sep-14 23:00N 09°31' W 013°43'0 0.2
2017-Sep-14 22:30N 09°31' W 013°43'0 0.7
2017-Sep-14 22:00N 09°31' W 013°43'4 8.1
2017-Sep-14 21:30N 09°27' W 013°42'1 3.0
2017-Sep-14 21:00N 09°28' W 013°44'3 5.2
2017-Sep-14 20:30N 09°31' W 013°43'4 8.0
2017-Sep-14 20:00N 09°27' W 013°42'4 7.8
2017-Sep-14 19:30N 09°31' W 013°43'0 0.4
2017-Sep-14 19:01N 09°31' W 013°43'4 7.9
2017-Sep-14 18:30N 09°27' W 013°42'4 7.4
2017-Sep-14 18:00N 09°31' W 013°44'1 1.2
2017-Sep-14 17:30N 09°31' W 013°43'3 6.4
2017-Sep-14 17:00N 09°28' W 013°43'1 1.6
2017-Sep-14 16:30N 09°29' W 013°44'2 4.3
2017-Sep-14 16:00N 09°31' W 013°43'0 0.1
2017-Sep-14 15:30N 09°31' W 013°43'4 7.8
2017-Sep-14 15:00N 09°27' W 013°43'4 7.6
2017-Sep-14 14:30N 09°31' W 013°43'0 0.4
2017-Sep-14 14:01N 09°31' W 013°44'4 7.4
2017-Sep-14 13:30N 09°27' W 013°43'4 8.1
2017-Sep-14 13:00N 09°31' W 013°43'0 0.8
2017-Sep-14 12:30N 09°31' W 013°43'0 0.2
2017-Sep-14 12:00N 09°31' W 013°43'0 0.2
2017-Sep-14 11:30N 09°31' W 013°43'0 0.1
2017-Sep-14 11:00N 09°31' W 013°43'0 0.0
2017-Sep-14 10:30N 09°31' W 013°43'1 2.2
2017-Sep-14 10:01N 09°30' W 013°44'4 7.1
2017-Sep-14 09:31N 09°27' W 013°42'4 8.3
2017-Sep-14 09:00N 09°31' W 013°43'0 0.4
2017-Sep-14 08:30N 09°31' W 013°43'1 2.1
2017-Sep-14 08:00N 09°30' W 013°44'3 5.4
2017-Sep-14 07:30N 09°27' W 013°43'4 7.2
2017-Sep-14 07:00N 09°31' W 013°43'1 1.4
2017-Sep-14 06:31N 09°30' W 013°44'3 6.6
2017-Sep-14 06:01N 09°27' W 013°43'4 7.9
2017-Sep-14 05:31N 09°31' W 013°43'0 0.9
2017-Sep-14 05:00N 09°31' W 013°43'4 8.5
2017-Sep-14 04:31N 09°27' W 013°42'4 8.5
2017-Sep-14 04:01N 09°31' W 013°43'0 0.5
2017-Sep-14 03:31N 09°30' W 013°44'4 7.3
2017-Sep-14 03:01N 09°27' W 013°43'4 7.9
2017-Sep-14 02:30N 09°31' W 013°43'0 0.4
2017-Sep-14 02:01N 09°31' W 013°43'4 7.7
2017-Sep-14 01:31N 09°27' W 013°42'4 8.4
2017-Sep-14 01:01N 09°31' W 013°43'0 0.7
2017-Sep-14 00:30N 09°31' W 013°43'0 0.2
2017-Sep-14 00:01N 09°31' W 013°43'0 0.0
2017-Sep-13 23:30N 09°31' W 013°43'2 4.6
2017-Sep-13 23:01N 09°29' W 013°44'2 4.8
2017-Sep-13 22:30N 09°27' W 013°43'0 0.7
2017-Sep-13 22:01N 09°27' W 013°43'4 8.7
2017-Sep-13 21:31N 09°31' W 013°43'0 0.6
2017-Sep-13 21:01N 09°31' W 013°43'0 0.2
2017-Sep-13 20:31N 09°31' W 013°43'0 0.2
2017-Sep-13 20:00N 09°31' W 013°43'0 0.1
2017-Sep-13 19:30N 09°31' W 013°43'0 0.1
2017-Sep-13 19:01N 09°31' W 013°43'0 0.2
2017-Sep-13 18:31N 09°31' W 013°43'0 0.3
2017-Sep-13 18:01N 09°31' W 013°43'0 0.1
2017-Sep-13 17:31N 09°31' W 013°43'0 0.1
2017-Sep-13 17:01N 09°31' W 013°43'2 4.3
2017-Sep-13 16:30N 09°29' W 013°44'1 2.7
2017-Sep-13 16:01N 09°28' W 013°44'3 6.5
2017-Sep-13 15:31N 09°31' W 013°43'0 0.2
2017-Sep-13 15:00N 09°31' W 013°43'0 0.2
2017-Sep-13 14:30N 09°31' W 013°43'4 8.2
2017-Sep-13 14:01N 09°27' W 013°43'3 5.6
2017-Sep-13 13:30N 09°30' W 013°44'2 3.0
2017-Sep-13 13:01N 09°31' W 013°43'0 0.1
2017-Sep-13 12:31N 09°31' W 013°43'0 0.3
2017-Sep-13 12:00N 09°31' W 013°43'0 0.3
2017-Sep-13 11:31N 09°31' W 013°43'0 0.1
2017-Sep-13 11:01N 09°31' W 013°43'0 0.2
2017-Sep-13 10:31N 09°31' W 013°43'1 0.2
2017-Sep-13 02:35N 09°30' W 013°44'0 5.2
2017-Sep-13 02:30N 09°31' W 013°43'0 0.3
2017-Sep-13 02:01N 09°31' W 013°43'4 7.7
2017-Sep-13 01:31N 09°27' W 013°42'4 7.4
2017-Sep-13 01:01N 09°31' W 013°43'0 0.2
2017-Sep-13 00:30N 09°31' W 013°43'4 7.7
2017-Sep-13 00:00N 09°27' W 013°42'4 7.5
2017-Sep-12 23:31N 09°31' W 013°43'0 0.2
2017-Sep-12 23:00N 09°31' W 013°43'4 7.6
2017-Sep-12 22:30N 09°27' W 013°43'4 7.3
2017-Sep-12 22:01N 09°31' W 013°43'0 0.4
2017-Sep-12 21:31N 09°31' W 013°43'4 7.9
2017-Sep-12 21:00N 09°27' W 013°42'4 7.8
2017-Sep-12 20:30N 09°31' W 013°43'0 0.4
2017-Sep-12 20:01N 09°31' W 013°43'4 8.1
2017-Sep-12 19:31N 09°27' W 013°42'3 6.7
2017-Sep-12 19:01N 09°30' W 013°44'1 1.4
2017-Sep-12 18:30N 09°31' W 013°43'1 2.8
2017-Sep-12 18:01N 09°29' W 013°44'2 3.2
2017-Sep-12 17:31N 09°28' W 013°43'4 7.0
2017-Sep-12 17:01N 09°31' W 013°43'0 0.1
2017-Sep-12 16:30N 09°31' W 013°43'0 0.2
2017-Sep-12 16:01N 09°31' W 013°43'4 8.8
2017-Sep-12 15:31N 09°27' W 013°43'4 7.7
2017-Sep-12 15:00N 09°31' W 013°43'1 1.5
2017-Sep-12 14:31N 09°31' W 013°43'0 0.1
2017-Sep-12 14:01N 09°31' W 013°43'0 0.0
2017-Sep-12 13:31N 09°31' W 013°43'0 0.2
2017-Sep-12 13:01N 09°31' W 013°43'4 7.5
2017-Sep-12 12:30N 09°28' W 013°43'2 4.8
2017-Sep-12 12:01N 09°30' W 013°44'2 3.2
2017-Sep-12 11:30N 09°31' W 013°43'0 0.0
2017-Sep-12 11:01N 09°31' W 013°43'0 0.2
2017-Sep-12 10:31N 09°31' W 013°43'0 0.4
2017-Sep-12 10:01N 09°31' W 013°43'0 0.1
2017-Sep-12 09:30N 09°31' W 013°43'0 0.7
2017-Sep-12 09:01N 09°31' W 013°43'4 7.8
2017-Sep-12 08:31N 09°27' W 013°43'2 4.9
2017-Sep-12 08:01N 09°30' W 013°44'2 3.3
2017-Sep-12 07:31N 09°31' W 013°43'1 1.4
2017-Sep-12 07:00N 09°31' W 013°43'4 8.0
2017-Sep-12 06:31N 09°27' W 013°42'4 8.4
2017-Sep-12 06:01N 09°31' W 013°43'0 0.2
2017-Sep-12 05:31N 09°31' W 013°43'4 8.0
2017-Sep-12 05:00N 09°27' W 013°42'3 6.7
2017-Sep-12 04:30N 09°30' W 013°44'1 1.9
2017-Sep-12 04:00N 09°31' W 013°43'4 7.8
2017-Sep-12 03:31N 09°27' W 013°42'3 6.5
2017-Sep-12 03:01N 09°30' W 013°44'1 1.9
2017-Sep-12 02:31N 09°31' W 013°43'3 6.1
2017-Sep-12 02:01N 09°28' W 013°43'  

Dump ship's entire track history